createdAt,value
2023-07-25T00:01:04.191Z,1003.78
2023-07-25T00:02:49.228Z,1003.77
2023-07-25T00:04:34.205Z,1003.76
2023-07-25T00:06:19.214Z,1003.77
2023-07-25T00:08:04.220Z,1003.88
2023-07-25T00:09:49.209Z,1003.88
2023-07-25T00:11:34.254Z,1003.89
2023-07-25T00:13:19.234Z,1003.89
2023-07-25T00:15:04.209Z,1003.91
2023-07-25T00:16:49.241Z,1003.86
2023-07-25T00:18:34.217Z,1003.92
2023-07-25T00:20:19.217Z,1003.95
2023-07-25T00:22:04.260Z,1003.9
2023-07-25T00:23:49.226Z,1003.93
2023-07-25T00:25:34.247Z,1003.91
2023-07-25T00:27:19.252Z,1003.97
2023-07-25T00:29:04.500Z,1003.83
2023-07-25T00:30:49.240Z,1003.85
2023-07-25T00:32:34.249Z,1003.84
2023-07-25T00:34:19.241Z,1003.89
2023-07-25T00:36:04.252Z,1003.83
2023-07-25T00:37:49.231Z,1003.88
2023-07-25T00:39:34.255Z,1003.87
2023-07-25T00:41:19.260Z,1003.92
2023-07-25T00:43:04.245Z,1003.94
2023-07-25T00:44:49.298Z,1004.03
2023-07-25T00:46:34.309Z,1003.93
2023-07-25T00:48:19.266Z,1004.02
2023-07-25T00:50:04.249Z,1004.01
2023-07-25T00:51:49.278Z,1004.08
2023-07-25T00:53:34.288Z,1004.03
2023-07-25T00:55:19.261Z,1004.05
2023-07-25T00:57:04.593Z,1004.04
2023-07-25T00:58:49.282Z,1004.03
2023-07-25T01:00:34.294Z,1004.02
2023-07-25T01:02:19.312Z,1003.98
2023-07-25T01:04:04.284Z,1003.94
2023-07-25T01:05:49.275Z,1004.03
2023-07-25T01:07:34.292Z,1003.97
2023-07-25T01:09:19.303Z,1004.03
2023-07-25T01:11:04.294Z,1003.96
2023-07-25T01:12:49.292Z,1003.94
2023-07-25T01:14:34.302Z,1004
2023-07-25T01:16:19.357Z,1003.99
2023-07-25T01:18:04.324Z,1003.88
2023-07-25T01:19:49.341Z,1004.03
2023-07-25T01:21:34.307Z,1003.92
2023-07-25T01:23:19.325Z,1003.95
2023-07-25T01:25:04.350Z,1003.91
2023-07-25T01:26:49.313Z,1003.9
2023-07-25T01:28:34.304Z,1003.82
2023-07-25T01:30:19.339Z,1003.76
2023-07-25T01:32:04.365Z,1003.81
2023-07-25T01:33:49.358Z,1003.88
2023-07-25T01:35:34.357Z,1003.82
2023-07-25T01:37:19.341Z,1003.75
2023-07-25T01:39:04.351Z,1003.74
2023-07-25T01:40:49.363Z,1003.71
2023-07-25T01:42:34.991Z,1003.7
2023-07-25T01:44:19.360Z,1003.6
2023-07-25T01:46:04.414Z,1003.57
2023-07-25T01:47:49.428Z,1003.62
2023-07-25T01:49:34.400Z,1003.69
2023-07-25T01:51:19.370Z,1003.66
2023-07-25T01:53:04.359Z,1003.56
2023-07-25T01:54:49.419Z,1003.62
2023-07-25T01:56:34.386Z,1003.56
2023-07-25T01:58:19.375Z,1003.5
2023-07-25T02:00:04.374Z,1003.47
2023-07-25T02:01:49.377Z,1003.44
2023-07-25T02:03:34.385Z,1003.4
2023-07-25T02:05:19.365Z,1003.39
2023-07-25T02:07:04.403Z,1003.34
2023-07-25T02:08:49.393Z,1003.39
2023-07-25T02:10:34.382Z,1003.32
2023-07-25T02:12:19.380Z,1003.25
2023-07-25T02:14:04.402Z,1003.43
2023-07-25T02:15:49.395Z,1003.23
2023-07-25T02:17:34.396Z,1003.24
2023-07-25T02:19:19.424Z,1003.35
2023-07-25T02:21:04.411Z,1003.37
2023-07-25T02:22:49.419Z,1003.25
2023-07-25T02:24:34.478Z,1003.36
2023-07-25T02:26:19.402Z,1003.35
2023-07-25T02:28:04.404Z,1003.34
2023-07-25T02:29:49.415Z,1003.25
2023-07-25T02:31:34.750Z,1003.38
2023-07-25T02:33:19.409Z,1003.4
2023-07-25T02:35:04.561Z,1003.32
2023-07-25T02:36:49.437Z,1003.35
2023-07-25T02:38:34.413Z,1003.34
2023-07-25T02:40:19.450Z,1003.25
2023-07-25T02:42:04.451Z,1003.33
2023-07-25T02:43:49.471Z,1003.35
2023-07-25T02:45:34.428Z,1003.35
2023-07-25T02:47:19.483Z,1003.35
2023-07-25T02:49:04.426Z,1003.44
2023-07-25T02:50:49.508Z,1003.35
2023-07-25T02:52:34.422Z,1003.22
2023-07-25T02:54:19.449Z,1003.25
2023-07-25T02:56:04.438Z,1003.33
2023-07-25T02:57:49.758Z,1003.31
2023-07-25T02:59:34.424Z,1003.22
2023-07-25T03:01:19.809Z,1003.34
2023-07-25T03:03:04.472Z,1003.18
2023-07-25T03:04:49.466Z,1003.3
2023-07-25T03:06:34.466Z,1003.32
2023-07-25T03:08:19.453Z,1003.32
2023-07-25T03:10:04.484Z,1003.33
2023-07-25T03:11:49.740Z,1003.37
2023-07-25T03:13:34.484Z,1003.38
2023-07-25T03:15:19.445Z,1003.37
2023-07-25T03:17:04.455Z,1003.41
2023-07-25T03:18:49.481Z,1003.32
2023-07-25T03:20:34.462Z,1003.25
2023-07-25T03:22:19.481Z,1003.34
2023-07-25T03:24:04.478Z,1003.26
2023-07-25T03:25:49.451Z,1003.22
2023-07-25T03:27:34.484Z,1003.26
2023-07-25T03:29:19.495Z,1003.21
2023-07-25T03:31:04.505Z,1003.33
2023-07-25T03:32:49.506Z,1003.37
2023-07-25T03:34:34.505Z,1003.38
2023-07-25T03:36:19.470Z,1003.34
2023-07-25T03:38:04.527Z,1003.23
2023-07-25T03:39:49.492Z,1003.22
2023-07-25T03:41:34.793Z,1003.14
2023-07-25T03:43:19.502Z,1003.31
2023-07-25T03:45:04.523Z,1003.22
2023-07-25T03:46:49.520Z,1003.25
2023-07-25T03:48:34.484Z,1003.26
2023-07-25T03:50:19.508Z,1003.15
2023-07-25T03:52:04.496Z,1003.26
2023-07-25T03:53:49.534Z,1003.3
2023-07-25T03:55:34.518Z,1003.36
2023-07-25T03:57:19.507Z,1003.35
2023-07-25T03:59:04.518Z,1003.23
2023-07-25T04:00:49.516Z,1003.31
2023-07-25T04:02:34.556Z,1003.19
2023-07-25T04:04:19.611Z,1003.21
2023-07-25T04:06:04.563Z,1003.26
2023-07-25T04:07:49.506Z,1003.35
2023-07-25T04:09:34.853Z,1003.3
2023-07-25T04:11:19.533Z,1003.33
2023-07-25T04:13:04.550Z,1003.32
2023-07-25T04:14:49.546Z,1003.3
2023-07-25T04:16:34.548Z,1003.24
2023-07-25T04:18:19.569Z,1003.25
2023-07-25T04:20:04.579Z,1003.25
2023-07-25T04:21:49.547Z,1003.33
2023-07-25T04:23:34.584Z,1003.22
2023-07-25T04:25:19.588Z,1003.18
2023-07-25T04:27:04.566Z,1003.24
2023-07-25T04:28:49.615Z,1003.17
2023-07-25T04:30:34.588Z,1003.19
2023-07-25T04:32:19.581Z,1003.15
2023-07-25T04:34:04.604Z,1003.1
2023-07-25T04:35:49.583Z,1003.16
2023-07-25T04:37:34.608Z,1003.13
2023-07-25T04:39:19.606Z,1003.09
2023-07-25T04:41:04.623Z,1003.15
2023-07-25T04:42:49.594Z,1003.17
2023-07-25T04:44:34.587Z,1003.19
2023-07-25T04:46:19.615Z,1003.14
2023-07-25T04:48:04.596Z,1003.2
2023-07-25T04:49:49.574Z,1003.13
2023-07-25T04:51:34.862Z,1003.15
2023-07-25T04:53:19.609Z,1003.2
2023-07-25T04:55:04.587Z,1003.14
2023-07-25T04:56:49.620Z,1003.16
2023-07-25T04:58:34.625Z,1003.17
2023-07-25T05:00:19.601Z,1003.25
2023-07-25T05:02:04.617Z,1003.36
2023-07-25T05:03:49.631Z,1003.36
2023-07-25T05:05:34.606Z,1003.38
2023-07-25T05:07:19.946Z,1003.33
2023-07-25T05:09:04.628Z,1003.34
2023-07-25T05:10:49.619Z,1003.31
2023-07-25T05:12:34.633Z,1003.35
2023-07-25T05:14:19.621Z,1003.41
2023-07-25T05:16:04.634Z,1003.41
2023-07-25T05:17:49.658Z,1003.38
2023-07-25T05:19:34.645Z,1003.3
2023-07-25T05:21:19.632Z,1003.33
2023-07-25T05:23:04.933Z,1003.31
2023-07-25T05:24:49.677Z,1003.33
2023-07-25T05:26:34.656Z,1003.34
2023-07-25T05:28:19.669Z,1003.3
2023-07-25T05:30:04.663Z,1003.21
2023-07-25T05:31:49.664Z,1003.34
2023-07-25T05:33:34.648Z,1003.32
2023-07-25T05:35:19.654Z,1003.31
2023-07-25T05:37:04.631Z,1003.32
2023-07-25T05:38:49.657Z,1003.35
2023-07-25T05:40:34.646Z,1003.37
2023-07-25T05:42:19.664Z,1003.2
2023-07-25T05:44:04.694Z,1003.26
2023-07-25T05:45:49.693Z,1003.35
2023-07-25T05:47:34.662Z,1003.3
2023-07-25T05:49:19.655Z,1003.32
2023-07-25T05:51:04.685Z,1003.31
2023-07-25T05:52:49.662Z,1003.16
2023-07-25T05:54:34.665Z,1003.31
2023-07-25T05:56:19.668Z,1003.35
2023-07-25T05:58:04.671Z,1003.36
2023-07-25T05:59:50.337Z,1003.35
2023-07-25T06:01:35.005Z,1003.36
2023-07-25T06:03:19.695Z,1003.42
2023-07-25T06:05:04.672Z,1003.47
2023-07-25T06:06:49.963Z,1003.43
2023-07-25T06:08:34.685Z,1003.45
2023-07-25T06:10:19.689Z,1003.45
2023-07-25T06:12:04.681Z,1003.55
2023-07-25T06:13:49.698Z,1003.53
2023-07-25T06:15:34.737Z,1003.42
2023-07-25T06:17:19.741Z,1003.57
2023-07-25T06:19:04.718Z,1003.48
2023-07-25T06:20:49.701Z,1003.48
2023-07-25T06:22:34.704Z,1003.43
2023-07-25T06:24:19.699Z,1003.49
2023-07-25T06:26:04.721Z,1003.4
2023-07-25T06:27:49.699Z,1003.42
2023-07-25T06:29:34.731Z,1003.35
2023-07-25T06:31:19.792Z,1003.48
2023-07-25T06:33:04.750Z,1003.57
2023-07-25T06:34:49.739Z,1003.45
2023-07-25T06:36:34.731Z,1003.45
2023-07-25T06:38:19.726Z,1003.48
2023-07-25T06:40:04.724Z,1003.43
2023-07-25T06:41:49.727Z,1003.43
2023-07-25T06:43:34.735Z,1003.45
2023-07-25T06:45:19.726Z,1003.5
2023-07-25T06:47:04.767Z,1003.53
2023-07-25T06:48:50.030Z,1003.5
2023-07-25T06:50:34.748Z,1003.53
2023-07-25T06:52:19.772Z,1003.64
2023-07-25T06:54:04.756Z,1003.6
2023-07-25T06:55:49.760Z,1003.63
2023-07-25T06:57:34.793Z,1003.58
2023-07-25T06:59:19.768Z,1003.6
2023-07-25T07:01:04.799Z,1003.56
2023-07-25T07:02:49.886Z,1003.6
2023-07-25T07:04:34.783Z,1003.54
2023-07-25T07:06:19.785Z,1003.59
2023-07-25T07:08:04.803Z,1003.66
2023-07-25T07:09:49.840Z,1003.68
2023-07-25T07:11:34.835Z,1003.76
2023-07-25T07:13:19.797Z,1003.74
2023-07-25T07:15:04.810Z,1003.87
2023-07-25T07:16:49.831Z,1003.71
2023-07-25T07:18:34.833Z,1003.68
2023-07-25T07:20:19.806Z,1003.68
2023-07-25T07:22:04.808Z,1003.71
2023-07-25T07:23:52.141Z,1003.65
2023-07-25T07:25:34.816Z,1003.65
2023-07-25T07:27:19.814Z,1003.77
2023-07-25T07:29:04.822Z,1003.73
2023-07-25T07:30:49.860Z,1003.76
2023-07-25T07:32:34.848Z,1003.72
2023-07-25T07:34:19.848Z,1003.74
2023-07-25T07:36:04.817Z,1003.75
2023-07-25T07:37:49.827Z,1003.78
2023-07-25T07:39:34.847Z,1003.74
2023-07-25T07:41:19.821Z,1003.76
2023-07-25T07:43:04.847Z,1003.62
2023-07-25T07:44:49.839Z,1003.7
2023-07-25T07:46:34.880Z,1003.7
2023-07-25T07:48:19.858Z,1003.74
2023-07-25T07:50:04.868Z,1003.78
2023-07-25T07:52:05.224Z,1003.76
2023-07-25T07:53:34.848Z,1003.88
2023-07-25T07:55:19.894Z,1003.79
2023-07-25T07:57:04.871Z,1003.9
2023-07-25T07:58:49.898Z,1003.87
2023-07-25T08:00:34.865Z,1003.84
2023-07-25T08:02:19.911Z,1003.94
2023-07-25T08:04:04.928Z,1003.97
2023-07-25T08:05:49.910Z,1004.01
2023-07-25T08:07:34.922Z,1004.02
2023-07-25T08:09:20.209Z,1004.02
2023-07-25T08:11:04.883Z,1004.02
2023-07-25T08:12:49.868Z,1004.06
2023-07-25T08:14:34.917Z,1004
2023-07-25T08:16:19.892Z,1004.01
2023-07-25T08:18:04.909Z,1003.99
2023-07-25T08:19:49.878Z,1004.01
2023-07-25T08:21:37.183Z,1004.11
2023-07-25T08:23:19.908Z,1004.03
2023-07-25T08:25:04.918Z,1004.17
2023-07-25T08:26:49.900Z,1004.01
2023-07-25T08:28:34.910Z,1004.04
2023-07-25T08:30:19.922Z,1004.03
2023-07-25T08:32:04.933Z,1004.01
2023-07-25T08:33:49.928Z,1004.05
2023-07-25T08:35:34.925Z,1004.06
2023-07-25T08:37:20.169Z,1004.04
2023-07-25T08:39:04.912Z,1004.02
2023-07-25T08:40:49.942Z,1004.16
2023-07-25T08:42:34.932Z,1004.07
2023-07-25T08:44:19.949Z,1004.12
2023-07-25T08:46:04.973Z,1004.13
2023-07-25T08:47:49.977Z,1004.2
2023-07-25T08:49:34.939Z,1004.19
2023-07-25T08:51:19.919Z,1004.19
2023-07-25T08:53:04.963Z,1004.02
2023-07-25T08:54:49.967Z,1004.1
2023-07-25T08:56:34.959Z,1004.13
2023-07-25T08:58:19.958Z,1004.16
2023-07-25T09:00:04.954Z,1004.15
2023-07-25T09:01:49.987Z,1004.18
2023-07-25T09:03:35.015Z,1004.3
2023-07-25T09:05:19.986Z,1004.23
2023-07-25T09:07:04.962Z,1004.15
2023-07-25T09:08:49.999Z,1004.18
2023-07-25T09:10:34.983Z,1004.18
2023-07-25T09:12:19.969Z,1004.27
2023-07-25T09:14:04.967Z,1004.19
2023-07-25T09:15:50.005Z,1004.25
2023-07-25T09:17:35.032Z,1004.19
2023-07-25T09:19:19.973Z,1004.25
2023-07-25T09:21:05.003Z,1004.27
2023-07-25T09:22:50.005Z,1004.24
2023-07-25T09:24:35.030Z,1004.22
2023-07-25T09:26:20.007Z,1004.29
2023-07-25T09:28:05.000Z,1004.32
2023-07-25T09:29:49.993Z,1004.34
2023-07-25T09:31:35.179Z,1004.34
2023-07-25T09:33:19.994Z,1004.29
2023-07-25T09:35:05.015Z,1004.29
2023-07-25T09:36:50.025Z,1004.36
2023-07-25T09:38:34.996Z,1004.24
2023-07-25T09:40:20.022Z,1004.2
2023-07-25T09:42:05.007Z,1004.32
2023-07-25T09:43:50.037Z,1004.32
2023-07-25T09:45:36.683Z,1004.29
2023-07-25T09:47:20.045Z,1004.3
2023-07-25T09:49:05.033Z,1004.22
2023-07-25T09:50:50.029Z,1004.3
2023-07-25T09:52:35.043Z,1004.41
2023-07-25T09:54:20.057Z,1004.41
2023-07-25T09:56:05.069Z,1004.33
2023-07-25T09:57:50.049Z,1004.32
2023-07-25T09:59:35.053Z,1004.31
2023-07-25T10:01:20.128Z,1004.34
2023-07-25T10:03:05.129Z,1004.3
2023-07-25T10:04:50.077Z,1004.35
2023-07-25T10:06:35.061Z,1004.38
2023-07-25T10:08:20.073Z,1004.47
2023-07-25T10:10:05.985Z,1004.41
2023-07-25T10:11:50.089Z,1004.38
2023-07-25T10:13:35.074Z,1004.31
2023-07-25T10:15:20.070Z,1004.36
2023-07-25T10:17:05.084Z,1004.31
2023-07-25T10:18:50.086Z,1004.32
2023-07-25T10:20:35.080Z,1004.41
2023-07-25T10:22:20.081Z,1004.42
2023-07-25T10:24:05.080Z,1004.36
2023-07-25T10:25:50.115Z,1004.47
2023-07-25T10:27:35.103Z,1004.45
2023-07-25T10:29:20.110Z,1004.44
2023-07-25T10:31:05.136Z,1004.46
2023-07-25T10:32:50.166Z,1004.47
2023-07-25T10:34:35.112Z,1004.55
2023-07-25T10:36:20.120Z,1004.54
2023-07-25T10:38:09.177Z,1004.51
2023-07-25T10:39:50.129Z,1004.47
2023-07-25T10:41:35.265Z,1004.47
2023-07-25T10:43:20.466Z,1004.62
2023-07-25T10:45:05.148Z,1004.67
2023-07-25T10:46:50.148Z,1004.64
2023-07-25T10:48:35.190Z,1004.52
2023-07-25T10:50:20.128Z,1004.59
2023-07-25T10:52:05.163Z,1004.5
2023-07-25T10:53:50.153Z,1004.49
2023-07-25T10:55:35.132Z,1004.44
2023-07-25T10:57:20.125Z,1004.44
2023-07-25T10:59:05.180Z,1004.5
2023-07-25T11:00:50.168Z,1004.53
2023-07-25T11:02:35.173Z,1004.45
2023-07-25T11:04:20.190Z,1004.45
2023-07-25T11:06:05.144Z,1004.59
2023-07-25T11:07:50.178Z,1004.43
2023-07-25T11:09:35.188Z,1004.45
2023-07-25T11:11:20.167Z,1004.44
2023-07-25T11:13:05.477Z,1004.44
2023-07-25T11:14:50.222Z,1004.4
2023-07-25T11:16:35.191Z,1004.49
2023-07-25T11:18:20.184Z,1004.4
2023-07-25T11:20:05.171Z,1004.38
2023-07-25T11:21:50.172Z,1004.51
2023-07-25T11:23:35.185Z,1004.49
2023-07-25T11:25:20.202Z,1004.44
2023-07-25T11:27:05.520Z,1004.56
2023-07-25T11:28:50.194Z,1004.56
2023-07-25T11:30:35.233Z,1004.51
2023-07-25T11:32:20.215Z,1004.56
2023-07-25T11:34:05.194Z,1004.53
2023-07-25T11:35:50.211Z,1004.47
2023-07-25T11:37:35.225Z,1004.53
2023-07-25T11:39:20.236Z,1004.54
2023-07-25T11:41:05.205Z,1004.58
2023-07-25T11:42:50.406Z,1004.52
2023-07-25T11:44:35.206Z,1004.61
2023-07-25T11:46:20.254Z,1004.65
2023-07-25T11:48:05.264Z,1004.61
2023-07-25T11:49:58.864Z,1004.54
2023-07-25T11:51:35.217Z,1004.58
2023-07-25T11:53:20.255Z,1004.59
2023-07-25T11:55:05.276Z,1004.49
2023-07-25T11:56:50.245Z,1004.47
2023-07-25T11:58:35.306Z,1004.43
2023-07-25T12:00:20.250Z,1004.39
2023-07-25T12:02:05.293Z,1004.43
2023-07-25T12:03:50.288Z,1004.51
2023-07-25T12:05:35.270Z,1004.45
2023-07-25T12:07:22.302Z,1004.43
2023-07-25T12:09:05.533Z,1004.44
2023-07-25T12:10:50.234Z,1004.44
2023-07-25T12:12:35.259Z,1004.46
2023-07-25T12:14:20.243Z,1004.48
2023-07-25T12:16:05.245Z,1004.44
2023-07-25T12:17:50.356Z,1004.46
2023-07-25T12:19:35.267Z,1004.49
2023-07-25T12:21:20.252Z,1004.51
2023-07-25T12:23:05.263Z,1004.5
2023-07-25T12:24:50.279Z,1004.54
2023-07-25T12:26:35.578Z,1004.58
2023-07-25T12:28:20.286Z,1004.53
2023-07-25T12:30:05.269Z,1004.62
2023-07-25T12:31:50.906Z,1004.72
2023-07-25T12:33:35.370Z,1004.7
2023-07-25T12:35:20.288Z,1004.7
2023-07-25T12:37:05.298Z,1004.73
2023-07-25T12:38:50.624Z,1004.66
2023-07-25T12:40:35.309Z,1004.73
2023-07-25T12:42:20.299Z,1004.75
2023-07-25T12:44:06.202Z,1004.74
2023-07-25T12:45:50.341Z,1004.7
2023-07-25T12:47:35.366Z,1004.79
2023-07-25T12:49:20.320Z,1004.8
2023-07-25T12:51:05.310Z,1004.79
2023-07-25T12:52:50.310Z,1004.73
2023-07-25T12:54:35.319Z,1004.74
2023-07-25T12:56:20.328Z,1004.81
2023-07-25T12:58:05.327Z,1004.69
2023-07-25T12:59:50.327Z,1004.69
2023-07-25T13:01:35.566Z,1004.69
2023-07-25T13:03:20.388Z,1004.72
2023-07-25T13:05:05.360Z,1004.74
2023-07-25T13:06:50.384Z,1004.63
2023-07-25T13:08:35.357Z,1004.74
2023-07-25T13:10:20.331Z,1004.69
2023-07-25T13:12:05.346Z,1004.63
2023-07-25T13:13:50.351Z,1004.67
2023-07-25T13:15:35.340Z,1004.7
2023-07-25T13:17:20.362Z,1004.67
2023-07-25T13:19:05.370Z,1004.71
2023-07-25T13:20:50.676Z,1004.69
2023-07-25T13:22:35.363Z,1004.75
2023-07-25T13:24:20.387Z,1004.8
2023-07-25T13:26:05.386Z,1004.71
2023-07-25T13:27:50.362Z,1004.76
2023-07-25T13:29:35.661Z,1004.69
2023-07-25T13:31:20.381Z,1004.83
2023-07-25T13:33:05.448Z,1004.72
2023-07-25T13:34:50.370Z,1004.76
2023-07-25T13:36:35.410Z,1004.71
2023-07-25T13:38:20.383Z,1004.6
2023-07-25T13:40:05.372Z,1004.73
2023-07-25T13:41:50.386Z,1004.73
2023-07-25T13:43:35.395Z,1004.73
2023-07-25T13:45:20.410Z,1004.61
2023-07-25T13:47:05.405Z,1004.71
2023-07-25T13:48:50.404Z,1004.72
2023-07-25T13:50:46.785Z,1004.58
2023-07-25T13:52:20.431Z,1004.65
2023-07-25T13:54:05.407Z,1004.74
2023-07-25T13:55:50.392Z,1004.71
2023-07-25T13:57:38.464Z,1004.66
2023-07-25T13:59:20.420Z,1004.72
2023-07-25T14:01:05.488Z,1004.76
2023-07-25T14:02:50.429Z,1004.76
2023-07-25T14:04:35.468Z,1004.84
2023-07-25T14:06:20.428Z,1004.82
2023-07-25T14:08:05.467Z,1004.85
2023-07-25T14:09:50.445Z,1004.78
2023-07-25T14:11:35.415Z,1004.83
2023-07-25T14:13:20.460Z,1004.73
2023-07-25T14:15:05.442Z,1004.84
2023-07-25T14:16:50.441Z,1004.74
2023-07-25T14:18:35.461Z,1004.78
2023-07-25T14:20:20.463Z,1004.79
2023-07-25T14:22:05.445Z,1004.85
2023-07-25T14:23:50.472Z,1004.82
2023-07-25T14:25:35.470Z,1004.84
2023-07-25T14:27:20.447Z,1004.84
2023-07-25T14:29:05.465Z,1004.84
2023-07-25T14:30:50.477Z,1004.81
2023-07-25T14:32:35.524Z,1004.77
2023-07-25T14:34:20.462Z,1004.92
2023-07-25T14:36:05.482Z,1004.87
2023-07-25T14:37:56.635Z,1004.92
2023-07-25T14:39:35.525Z,1004.84
2023-07-25T14:41:20.496Z,1005
2023-07-25T14:43:05.482Z,1004.95
2023-07-25T14:44:50.469Z,1005.01
2023-07-25T14:46:35.796Z,1004.89
2023-07-25T14:48:20.571Z,1004.95
2023-07-25T14:50:05.512Z,1004.96
2023-07-25T14:51:50.504Z,1004.99
2023-07-25T14:53:35.494Z,1005.01
2023-07-25T14:55:20.776Z,1004.93
2023-07-25T14:57:05.497Z,1004.91
2023-07-25T14:58:50.509Z,1004.93
2023-07-25T15:00:35.569Z,1005.02
2023-07-25T15:02:20.552Z,1004.99
2023-07-25T15:04:05.526Z,1004.9
2023-07-25T15:05:50.561Z,1004.97
2023-07-25T15:07:36.658Z,1004.96
2023-07-25T15:09:20.512Z,1004.97
2023-07-25T15:11:05.552Z,1004.85
2023-07-25T15:12:50.510Z,1004.92
2023-07-25T15:14:35.512Z,1004.96
2023-07-25T15:16:20.560Z,1004.96
2023-07-25T15:18:05.536Z,1004.98
2023-07-25T15:19:50.538Z,1005.06
2023-07-25T15:21:35.554Z,1005.05
2023-07-25T15:23:20.533Z,1005.05
2023-07-25T15:25:05.567Z,1005.05
2023-07-25T15:26:50.614Z,1005.08
2023-07-25T15:28:35.553Z,1005.13
2023-07-25T15:30:20.554Z,1005.03
2023-07-25T15:32:05.568Z,1005.02
2023-07-25T15:33:50.742Z,1005.03
2023-07-25T15:35:35.556Z,1005.08
2023-07-25T15:37:20.575Z,1005.06
2023-07-25T15:39:05.579Z,1005.03
2023-07-25T15:40:50.563Z,1005.16
2023-07-25T15:42:35.606Z,1005.2
2023-07-25T15:44:20.592Z,1005.21
2023-07-25T15:46:05.593Z,1005.25
2023-07-25T15:47:50.613Z,1005.27
2023-07-25T15:49:35.572Z,1005.15
2023-07-25T15:51:20.608Z,1005.18
2023-07-25T15:53:05.594Z,1005.23
2023-07-25T15:54:50.603Z,1005.29
2023-07-25T15:56:35.586Z,1005.32
2023-07-25T15:58:20.613Z,1005.31
2023-07-25T16:00:05.582Z,1005.23
2023-07-25T16:01:53.090Z,1005.24
2023-07-25T16:03:35.657Z,1005.27
2023-07-25T16:05:20.608Z,1005.25
2023-07-25T16:07:05.602Z,1005.35
2023-07-25T16:08:50.598Z,1005.32
2023-07-25T16:10:35.641Z,1005.31
2023-07-25T16:12:20.588Z,1005.37
2023-07-25T16:14:05.629Z,1005.33
2023-07-25T16:15:50.681Z,1005.37
2023-07-25T16:17:35.659Z,1005.28
2023-07-25T16:19:20.656Z,1005.25
2023-07-25T16:21:05.603Z,1005.34
2023-07-25T16:22:50.604Z,1005.31
2023-07-25T16:24:35.625Z,1005.38
2023-07-25T16:26:20.657Z,1005.41
2023-07-25T16:28:05.621Z,1005.37
2023-07-25T16:29:51.010Z,1005.52
2023-07-25T16:31:35.633Z,1005.4
2023-07-25T16:33:20.628Z,1005.41
2023-07-25T16:35:05.644Z,1005.42
2023-07-25T16:36:50.657Z,1005.4
2023-07-25T16:38:35.677Z,1005.44
2023-07-25T16:40:20.679Z,1005.39
2023-07-25T16:42:05.644Z,1005.53
2023-07-25T16:43:50.663Z,1005.59
2023-07-25T16:45:35.708Z,1005.61
2023-07-25T16:47:20.652Z,1005.51
2023-07-25T16:49:05.997Z,1005.64
2023-07-25T16:50:50.673Z,1005.53
2023-07-25T16:52:35.675Z,1005.48
2023-07-25T16:54:20.686Z,1005.58
2023-07-25T16:56:05.664Z,1005.6
2023-07-25T16:57:50.689Z,1005.69
2023-07-25T16:59:35.707Z,1005.6
2023-07-25T17:01:20.778Z,1005.68
2023-07-25T17:03:05.744Z,1005.71
2023-07-25T17:04:50.705Z,1005.71
2023-07-25T17:06:35.991Z,1005.81
2023-07-25T17:08:20.721Z,1005.86
2023-07-25T17:10:05.724Z,1005.79
2023-07-25T17:11:50.753Z,1005.89
2023-07-25T17:13:35.700Z,1005.87
2023-07-25T17:15:20.742Z,1005.91
2023-07-25T17:17:05.778Z,1005.98
2023-07-25T17:18:50.729Z,1005.93
2023-07-25T17:20:35.714Z,1006
2023-07-25T17:22:20.752Z,1006.06
2023-07-25T17:24:05.739Z,1006.1
2023-07-25T17:25:50.759Z,1006.15
2023-07-25T17:27:35.774Z,1006.1
2023-07-25T17:29:20.721Z,1006.12
2023-07-25T17:31:05.764Z,1006.2
2023-07-25T17:32:50.961Z,1006.17
2023-07-25T17:34:35.746Z,1006.09
2023-07-25T17:36:20.726Z,1006.19
2023-07-25T17:38:05.832Z,1006.17
2023-07-25T17:39:50.773Z,1006.2
2023-07-25T17:41:35.767Z,1006.19
2023-07-25T17:43:20.786Z,1006.19
2023-07-25T17:45:05.751Z,1006.23
2023-07-25T17:46:50.759Z,1006.17
2023-07-25T17:48:35.802Z,1006.27
2023-07-25T17:50:20.786Z,1006.34
2023-07-25T17:52:05.825Z,1006.37
2023-07-25T17:53:50.749Z,1006.3
2023-07-25T17:55:35.803Z,1006.3
2023-07-25T17:57:20.774Z,1006.23
2023-07-25T17:59:05.777Z,1006.36
2023-07-25T18:00:50.814Z,1006.33
2023-07-25T18:02:35.821Z,1006.36
2023-07-25T18:04:20.786Z,1006.34
2023-07-25T18:06:05.794Z,1006.45
2023-07-25T18:07:50.769Z,1006.49
2023-07-25T18:09:35.790Z,1006.44
2023-07-25T18:11:20.814Z,1006.44
2023-07-25T18:13:05.805Z,1006.45
2023-07-25T18:14:50.776Z,1006.48
2023-07-25T18:16:35.835Z,1006.49
2023-07-25T18:18:20.801Z,1006.54
2023-07-25T18:20:05.818Z,1006.54
2023-07-25T18:21:50.821Z,1006.48
2023-07-25T18:23:35.797Z,1006.57
2023-07-25T18:25:20.814Z,1006.52
2023-07-25T18:27:05.808Z,1006.63
2023-07-25T18:28:50.834Z,1006.66
2023-07-25T18:30:35.820Z,1006.55
2023-07-25T18:32:20.810Z,1006.65
2023-07-25T18:34:05.830Z,1006.67
2023-07-25T18:35:50.848Z,1006.66
2023-07-25T18:37:35.837Z,1006.66
2023-07-25T18:39:20.839Z,1006.67
2023-07-25T18:41:05.842Z,1006.64
2023-07-25T18:42:50.844Z,1006.77
2023-07-25T18:44:35.864Z,1006.76
2023-07-25T18:46:20.862Z,1006.74
2023-07-25T18:48:06.196Z,1006.73
2023-07-25T18:49:50.874Z,1006.8
2023-07-25T18:51:35.908Z,1006.77
2023-07-25T18:53:20.849Z,1006.85
2023-07-25T18:55:05.861Z,1006.77
2023-07-25T18:56:50.848Z,1006.78
2023-07-25T18:58:35.867Z,1006.85
2023-07-25T19:00:20.857Z,1006.88
2023-07-25T19:02:05.885Z,1006.92
2023-07-25T19:03:50.863Z,1006.96
2023-07-25T19:05:35.877Z,1006.89
2023-07-25T19:07:20.897Z,1006.95
2023-07-25T19:09:05.864Z,1007.05
2023-07-25T19:10:50.888Z,1006.98
2023-07-25T19:12:35.896Z,1007.01
2023-07-25T19:14:20.885Z,1007.12
2023-07-25T19:16:05.869Z,1007.19
2023-07-25T19:17:50.939Z,1007.14
2023-07-25T19:19:35.882Z,1007.11
2023-07-25T19:21:20.876Z,1007.06
2023-07-25T19:23:19.620Z,1007.12
2023-07-25T19:24:50.903Z,1007.18
2023-07-25T19:26:35.873Z,1007.21
2023-07-25T19:28:20.875Z,1007.2
2023-07-25T19:30:05.907Z,1007.28
2023-07-25T19:31:50.891Z,1007.31
2023-07-25T19:33:35.918Z,1007.29
2023-07-25T19:35:21.551Z,1007.36
2023-07-25T19:37:06.548Z,1007.35
2023-07-25T19:38:50.939Z,1007.35
2023-07-25T19:40:35.934Z,1007.45
2023-07-25T19:42:20.928Z,1007.43
2023-07-25T19:44:05.910Z,1007.5
2023-07-25T19:45:50.917Z,1007.46
2023-07-25T19:47:35.923Z,1007.53
2023-07-25T19:49:20.909Z,1007.53
2023-07-25T19:51:05.914Z,1007.65
2023-07-25T19:52:50.891Z,1007.54
2023-07-25T19:54:36.017Z,1007.64
2023-07-25T19:56:20.947Z,1007.65
2023-07-25T19:58:05.914Z,1007.66
2023-07-25T19:59:50.929Z,1007.67
2023-07-25T20:01:35.916Z,1007.73
2023-07-25T20:03:21.034Z,1007.65
2023-07-25T20:05:05.935Z,1007.78
2023-07-25T20:06:50.950Z,1007.77
2023-07-25T20:08:35.933Z,1007.81
2023-07-25T20:10:21.009Z,1007.81
2023-07-25T20:12:05.938Z,1007.85
2023-07-25T20:13:50.950Z,1007.76
2023-07-25T20:15:35.942Z,1007.87
2023-07-25T20:17:20.945Z,1007.78
2023-07-25T20:19:05.935Z,1007.87
2023-07-25T20:20:50.930Z,1007.81
2023-07-25T20:22:35.929Z,1007.83
2023-07-25T20:24:21.001Z,1007.85
2023-07-25T20:26:06.010Z,1007.92
2023-07-25T20:27:50.966Z,1007.9
2023-07-25T20:29:35.981Z,1007.98
2023-07-25T20:31:20.951Z,1008.03
2023-07-25T20:33:05.990Z,1008.07
2023-07-25T20:34:50.959Z,1008.01
2023-07-25T20:36:36.601Z,1008.01
2023-07-25T20:38:20.968Z,1008.17
2023-07-25T20:40:07.264Z,1008.04
2023-07-25T20:41:51.000Z,1008.13
2023-07-25T20:43:35.978Z,1008.15
2023-07-25T20:45:20.974Z,1008.11
2023-07-25T20:47:05.981Z,1008.16
2023-07-25T20:48:51.011Z,1008.22
2023-07-25T20:50:36.279Z,1008.24
2023-07-25T20:52:20.995Z,1008.22
2023-07-25T20:54:05.973Z,1008.28
2023-07-25T20:55:51.007Z,1008.25
2023-07-25T20:57:36.039Z,1008.32
2023-07-25T20:59:20.993Z,1008.32
2023-07-25T21:01:06.004Z,1008.29
2023-07-25T21:02:51.179Z,1008.31
2023-07-25T21:04:36.005Z,1008.3
2023-07-25T21:06:21.049Z,1008.35
2023-07-25T21:08:06.012Z,1008.37
2023-07-25T21:09:51.004Z,1008.45
2023-07-25T21:11:35.985Z,1008.39
2023-07-25T21:13:21.045Z,1008.45
2023-07-25T21:15:06.021Z,1008.34